createdAt,value
2023-04-05T00:00:22.392Z,10.26
2023-04-05T00:02:30.046Z,10.26
2023-04-05T00:04:34.898Z,10.24
2023-04-05T00:06:40.196Z,10.23
2023-04-05T00:08:44.544Z,10.24
2023-04-05T00:10:47.132Z,10.22
2023-04-05T00:12:51.091Z,10.22
2023-04-05T00:14:53.714Z,10.23
2023-04-05T00:16:56.635Z,10.21
2023-04-05T00:19:00.422Z,10.25
2023-04-05T00:21:03.308Z,10.20
2023-04-05T00:23:07.042Z,10.24
2023-04-05T00:25:10.022Z,10.23
2023-04-05T00:27:12.719Z,10.23
2023-04-05T00:29:15.483Z,10.25
2023-04-05T00:31:18.839Z,10.23
2023-04-05T00:33:21.486Z,10.23
2023-04-05T00:35:28.438Z,10.20
2023-04-05T00:37:31.054Z,10.20
2023-04-05T00:39:33.707Z,10.19
2023-04-05T00:41:36.985Z,10.16
2023-04-05T00:43:39.740Z,10.12
2023-04-05T00:45:42.845Z,10.11
2023-04-05T00:47:45.758Z,10.05
2023-04-05T00:49:48.527Z,10.06
2023-04-05T00:51:51.209Z,10.05
2023-04-05T00:53:54.637Z,10.05
2023-04-05T00:55:58.326Z,10.03
2023-04-05T00:58:01.240Z,10.04
2023-04-05T01:00:09.617Z,10.07
2023-04-05T01:02:32.075Z,10.03
2023-04-05T01:04:37.037Z,10.09
2023-04-05T01:06:51.040Z,10.11
2023-04-05T01:09:08.895Z,10.12
2023-04-05T01:11:13.653Z,10.12
2023-04-05T01:13:17.674Z,10.11
2023-04-05T01:15:20.836Z,10.08
2023-04-05T01:17:28.551Z,10.10
2023-04-05T01:19:31.535Z,10.06
2023-04-05T01:21:39.979Z,10.08
2023-04-05T01:24:10.111Z,10.03
2023-04-05T01:26:46.856Z,10.06
2023-04-05T01:29:18.004Z,10.02
2023-04-05T01:31:29.632Z,10.01
2023-04-05T01:33:44.365Z,9.99
2023-04-05T01:36:10.447Z,9.99
2023-04-05T01:38:19.340Z,9.98
2023-04-05T01:40:23.283Z,9.94
2023-04-05T01:42:26.829Z,9.94
2023-04-05T01:44:30.204Z,9.95
2023-04-05T01:46:33.041Z,9.94
2023-04-05T01:48:35.809Z,9.94
2023-04-05T01:50:38.959Z,9.93
2023-04-05T01:52:42.611Z,9.95
2023-04-05T01:54:45.558Z,9.98
2023-04-05T01:56:48.247Z,10.00
2023-04-05T01:58:51.341Z,10.05
2023-04-05T02:00:57.706Z,10.12
2023-04-05T02:03:00.586Z,10.16
2023-04-05T02:05:03.348Z,10.18
2023-04-05T02:07:06.309Z,10.18
2023-04-05T02:09:09.034Z,10.20
2023-04-05T02:11:11.798Z,10.21
2023-04-05T02:13:14.576Z,10.19
2023-04-05T02:15:17.365Z,10.21
2023-04-05T02:17:20.151Z,10.23
2023-04-05T02:19:23.898Z,10.22
2023-04-05T02:21:26.936Z,10.22
2023-04-05T02:23:30.733Z,10.23
2023-04-05T02:25:33.487Z,10.24
2023-04-05T02:27:37.597Z,10.24
2023-04-05T02:29:40.379Z,10.22
2023-04-05T02:31:43.137Z,10.25
2023-04-05T02:33:45.847Z,10.29
2023-04-05T02:35:51.921Z,10.33
2023-04-05T02:37:54.873Z,10.36
2023-04-05T02:39:57.442Z,10.40
2023-04-05T02:42:00.220Z,10.40
2023-04-05T02:44:03.273Z,10.40
2023-04-05T02:46:06.117Z,10.39
2023-04-05T02:48:09.027Z,10.36
2023-04-05T02:50:11.819Z,10.31
2023-04-05T02:52:15.278Z,10.31
2023-04-05T02:54:17.940Z,10.26
2023-04-05T02:56:22.280Z,10.23
2023-04-05T02:58:25.093Z,10.16
2023-04-05T03:00:28.403Z,10.16
2023-04-05T03:02:31.723Z,10.14
2023-04-05T03:04:34.692Z,10.11
2023-04-05T03:06:38.619Z,10.08
2023-04-05T03:08:46.660Z,10.09
2023-04-05T03:10:51.807Z,10.09
2023-04-05T03:12:54.557Z,10.08
2023-04-05T03:14:57.183Z,10.06
2023-04-05T03:16:59.909Z,10.02
2023-04-05T03:19:02.725Z,10.02
2023-04-05T03:21:06.202Z,10.00
2023-04-05T03:23:09.547Z,10.00
2023-04-05T03:25:12.209Z,10.02
2023-04-05T03:27:15.914Z,10.02
2023-04-05T03:29:18.583Z,10.02
2023-04-05T03:31:21.849Z,10.04
2023-04-05T03:33:24.892Z,10.11
2023-04-05T03:35:31.285Z,10.15
2023-04-05T03:37:33.957Z,10.20
2023-04-05T03:39:37.104Z,10.25
2023-04-05T03:41:40.712Z,10.30
2023-04-05T03:43:43.379Z,10.35
2023-04-05T03:45:46.212Z,10.39
2023-04-05T03:47:48.933Z,10.47
2023-04-05T03:49:51.671Z,10.50
2023-04-05T03:51:54.454Z,10.58
2023-04-05T03:53:57.113Z,10.65
2023-04-05T03:55:59.844Z,10.68
2023-04-05T03:58:02.645Z,10.73
2023-04-05T04:00:15.148Z,10.78
2023-04-05T04:02:17.923Z,10.78
2023-04-05T04:04:21.176Z,10.89
2023-04-05T04:06:27.447Z,10.95
2023-04-05T04:08:30.838Z,11.02
2023-04-05T04:10:35.200Z,11.04
2023-04-05T04:12:38.796Z,11.11
2023-04-05T04:14:41.535Z,11.17
2023-04-05T04:16:44.176Z,11.25
2023-04-05T04:18:46.908Z,11.33
2023-04-05T04:20:49.703Z,11.36
2023-04-05T04:22:54.090Z,11.41
2023-04-05T04:24:56.821Z,11.45
2023-04-05T04:26:59.622Z,11.52
2023-04-05T04:29:03.541Z,11.58
2023-04-05T04:31:09.325Z,11.65
2023-04-05T04:33:12.157Z,11.66
2023-04-05T04:35:21.007Z,11.74
2023-04-05T04:37:30.326Z,11.78
2023-04-05T04:39:33.101Z,11.87
2023-04-05T04:41:38.416Z,11.94
2023-04-05T04:43:44.918Z,12.05
2023-04-05T04:45:48.643Z,12.09
2023-04-05T04:47:53.879Z,12.16
2023-04-05T04:49:57.589Z,12.25
2023-04-05T04:52:00.464Z,12.40
2023-04-05T04:54:03.228Z,12.50
2023-04-05T04:56:09.248Z,12.54
2023-04-05T04:58:13.880Z,12.63
2023-04-05T05:00:17.020Z,12.73
2023-04-05T05:02:24.305Z,12.79
2023-04-05T05:04:27.110Z,12.89
2023-04-05T05:06:30.089Z,12.99
2023-04-05T05:08:32.893Z,13.15
2023-04-05T05:10:36.015Z,13.23
2023-04-05T05:12:39.306Z,13.30
2023-04-05T05:14:42.149Z,13.35
2023-04-05T05:16:44.875Z,13.38
2023-04-05T05:18:48.742Z,13.54
2023-04-05T05:20:52.365Z,13.57
2023-04-05T05:22:55.809Z,13.63
2023-04-05T05:24:58.396Z,13.67
2023-04-05T05:27:01.039Z,13.75
2023-04-05T05:29:04.384Z,13.85
2023-04-05T05:31:07.081Z,13.95
2023-04-05T05:33:10.081Z,14.17
2023-04-05T05:35:12.811Z,14.25
2023-04-05T05:37:16.840Z,14.37
2023-04-05T05:39:20.764Z,14.61
2023-04-05T05:41:24.337Z,14.75
2023-04-05T05:43:27.195Z,14.68
2023-04-05T05:45:29.975Z,14.74
2023-04-05T05:47:32.994Z,14.93
2023-04-05T05:49:35.905Z,15.01
2023-04-05T05:51:38.558Z,15.01
2023-04-05T05:53:41.315Z,15.15
2023-04-05T05:55:44.026Z,15.15
2023-04-05T05:57:46.860Z,15.29
2023-04-05T05:59:49.510Z,15.42
2023-04-05T06:01:52.447Z,15.46
2023-04-05T06:03:55.628Z,15.51
2023-04-05T06:06:00.034Z,15.55
2023-04-05T06:08:04.128Z,15.58
2023-04-05T06:10:07.809Z,15.67
2023-04-05T06:12:11.466Z,15.78
2023-04-05T06:14:14.209Z,15.92
2023-04-05T06:16:17.321Z,16.00
2023-04-05T06:18:21.795Z,16.08
2023-04-05T06:20:24.800Z,16.22
2023-04-05T06:22:27.786Z,16.34
2023-04-05T06:24:32.288Z,16.45
2023-04-05T06:26:35.397Z,16.68
2023-04-05T06:28:38.260Z,16.78
2023-04-05T06:30:41.323Z,16.84
2023-04-05T06:32:44.548Z,17.00
2023-04-05T06:34:49.275Z,17.10
2023-04-05T06:36:52.160Z,17.21
2023-04-05T06:38:54.882Z,17.32
2023-04-05T06:40:57.514Z,17.43
2023-04-05T06:43:00.412Z,17.46
2023-04-05T06:45:04.513Z,17.49
2023-04-05T06:47:07.244Z,17.45
2023-04-05T06:49:10.136Z,17.41
2023-04-05T06:51:12.867Z,17.38
2023-04-05T06:53:19.904Z,17.42
2023-04-05T06:55:22.593Z,17.41
2023-04-05T06:57:25.466Z,17.45
2023-04-05T06:59:30.743Z,17.44
2023-04-05T07:01:37.257Z,17.28
2023-04-05T07:03:40.124Z,17.40
2023-04-05T07:05:50.945Z,17.33
2023-04-05T07:07:53.684Z,17.39
2023-04-05T07:09:56.741Z,17.39
2023-04-05T07:12:00.235Z,17.33
2023-04-05T07:14:02.987Z,17.37
2023-04-05T07:16:05.946Z,17.38
2023-04-05T07:18:08.843Z,17.41
2023-04-05T07:20:12.169Z,17.44
2023-04-05T07:22:14.902Z,17.44
2023-04-05T07:24:17.575Z,17.44
2023-04-05T07:26:20.344Z,17.41
2023-04-05T07:28:23.178Z,17.43
2023-04-05T07:30:29.213Z,17.42
2023-04-05T07:32:31.951Z,17.48
2023-04-05T07:34:36.829Z,17.50
2023-04-05T07:36:39.641Z,17.57
2023-04-05T07:38:42.507Z,17.64
2023-04-05T07:40:45.177Z,17.64
2023-04-05T07:42:47.910Z,17.66
2023-04-05T07:44:50.610Z,17.77
2023-04-05T07:46:53.369Z,17.84
2023-04-05T07:48:56.240Z,17.83
2023-04-05T07:51:04.343Z,17.87
2023-04-05T07:53:08.430Z,17.91
2023-04-05T07:55:11.121Z,17.90
2023-04-05T07:57:19.133Z,17.89
2023-04-05T07:59:22.338Z,17.91
2023-04-05T08:01:28.116Z,17.97
2023-04-05T08:03:32.402Z,17.99
2023-04-05T08:05:35.156Z,18.06
2023-04-05T08:07:37.901Z,18.06
2023-04-05T08:09:40.749Z,18.04
2023-04-05T08:11:43.730Z,18.08
2023-04-05T08:13:47.094Z,18.10
2023-04-05T08:15:49.748Z,18.16
2023-04-05T08:17:52.828Z,18.19
2023-04-05T08:19:55.696Z,18.27
2023-04-05T08:21:58.374Z,18.16
2023-04-05T08:24:01.145Z,18.11
2023-04-05T08:26:04.213Z,18.21
2023-04-05T08:28:06.961Z,18.33
2023-04-05T08:30:10.422Z,18.42
2023-04-05T08:32:13.269Z,18.46
2023-04-05T08:34:16.084Z,18.45
2023-04-05T08:36:18.741Z,18.43
2023-04-05T08:38:21.812Z,18.41
2023-04-05T08:40:33.535Z,18.38
2023-04-05T08:42:42.415Z,18.44
2023-04-05T08:44:46.746Z,18.54
2023-04-05T08:46:50.827Z,18.64
2023-04-05T08:48:53.689Z,18.74
2023-04-05T08:50:56.541Z,18.77
2023-04-05T08:52:59.123Z,18.73
2023-04-05T08:55:01.754Z,18.88
2023-04-05T08:57:07.421Z,18.91
2023-04-05T08:59:11.812Z,18.97
2023-04-05T09:01:15.312Z,18.92
2023-04-05T09:03:24.361Z,18.97
2023-04-05T09:05:27.566Z,19.12
2023-04-05T09:07:31.625Z,19.24
2023-04-05T09:09:38.082Z,19.35
2023-04-05T09:11:41.086Z,19.38
2023-04-05T09:13:43.808Z,19.45
2023-04-05T09:15:47.045Z,19.35
2023-04-05T09:17:50.928Z,19.18
2023-04-05T09:19:53.554Z,19.08
2023-04-05T09:22:04.050Z,19.27
2023-04-05T09:24:07.129Z,19.36
2023-04-05T09:26:25.942Z,19.44
2023-04-05T09:28:42.659Z,19.39
2023-04-05T09:30:48.546Z,19.17
2023-04-05T09:32:53.282Z,18.97
2023-04-05T09:35:01.594Z,19.03
2023-04-05T09:37:16.356Z,19.14
2023-04-05T09:39:23.357Z,19.10
2023-04-05T09:41:26.656Z,19.01
2023-04-05T09:43:43.019Z,19.16
2023-04-05T09:45:46.366Z,19.16
2023-04-05T09:47:57.676Z,19.17
2023-04-05T09:50:06.612Z,19.33
2023-04-05T09:52:41.473Z,19.21
2023-04-05T09:54:44.167Z,19.18
2023-04-05T09:56:57.090Z,19.31
2023-04-05T09:59:01.939Z,19.40
2023-04-05T10:01:16.250Z,19.06
2023-04-05T10:03:21.211Z,18.92
2023-04-05T10:05:26.053Z,18.98
2023-04-05T10:07:29.578Z,19.12
2023-04-05T10:09:35.533Z,19.30
2023-04-05T10:11:39.883Z,19.54
2023-04-05T10:13:42.863Z,19.54
2023-04-05T10:15:47.719Z,19.60
2023-04-05T10:18:00.954Z,19.88
2023-04-05T10:20:28.333Z,20.10
2023-04-05T10:22:41.272Z,20.28
2023-04-05T10:24:53.033Z,20.38
2023-04-05T10:27:05.780Z,20.50
2023-04-05T10:29:35.896Z,20.12
2023-04-05T10:32:21.886Z,19.89
2023-04-05T10:35:13.992Z,19.78
2023-04-05T10:37:48.508Z,19.75
2023-04-05T10:39:51.964Z,19.93
2023-04-05T10:42:22.178Z,20.15
2023-04-05T10:44:26.692Z,20.26
2023-04-05T10:46:31.959Z,20.47
2023-04-05T10:48:52.574Z,20.62
2023-04-05T10:50:57.222Z,20.56
2023-04-05T10:53:01.139Z,20.63
2023-04-05T10:55:04.970Z,20.64
2023-04-05T10:57:10.410Z,20.47
2023-04-05T10:59:14.274Z,20.30
2023-04-05T11:01:19.039Z,20.25
2023-04-05T11:03:50.781Z,20.61
2023-04-05T11:06:20.561Z,20.87
2023-04-05T11:08:23.986Z,21.03
2023-04-05T11:10:28.376Z,21.15
2023-04-05T11:12:48.766Z,21.11
2023-04-05T11:14:52.765Z,20.98
2023-04-05T11:17:00.227Z,20.98
2023-04-05T11:19:03.016Z,21.09
2023-04-05T11:21:08.832Z,21.04
2023-04-05T11:23:13.739Z,21.03
2023-04-05T11:25:24.788Z,20.94
2023-04-05T11:27:29.358Z,21.06
2023-04-05T11:29:50.753Z,21.40
2023-04-05T11:32:01.470Z,21.28
2023-04-05T11:34:10.680Z,20.98
2023-04-05T11:36:15.665Z,21.04
2023-04-05T11:38:23.553Z,21.22
2023-04-05T11:40:37.638Z,21.58
2023-04-05T11:42:41.409Z,21.80
2023-04-05T11:44:49.272Z,21.79
2023-04-05T11:46:54.595Z,21.61
2023-04-05T11:48:57.562Z,21.51
2023-04-05T11:51:00.797Z,21.32
2023-04-05T11:53:19.135Z,21.43
2023-04-05T11:55:27.249Z,21.33
2023-04-05T11:57:29.902Z,21.13
2023-04-05T11:59:36.015Z,21.32
2023-04-05T12:01:39.858Z,21.39
2023-04-05T12:03:42.621Z,21.54
2023-04-05T12:05:53.305Z,21.49
2023-04-05T12:07:58.126Z,21.64
2023-04-05T12:10:03.563Z,21.48
2023-04-05T12:12:17.275Z,21.55
2023-04-05T12:14:23.939Z,21.65
2023-04-05T12:16:27.036Z,22.03
2023-04-05T12:18:32.835Z,21.97
2023-04-05T12:20:35.682Z,22.02
2023-04-05T12:22:40.595Z,22.18
2023-04-05T12:24:43.953Z,21.97
2023-04-05T12:26:47.055Z,21.63
2023-04-05T12:29:00.427Z,21.77
2023-04-05T12:31:03.782Z,21.75
2023-04-05T12:33:10.037Z,21.82
2023-04-05T12:35:18.554Z,21.81
2023-04-05T12:37:21.829Z,22.19
2023-04-05T12:39:29.697Z,22.33
2023-04-05T12:41:33.099Z,22.14
2023-04-05T12:43:41.213Z,22.27
2023-04-05T12:45:44.650Z,22.25
2023-04-05T12:47:57.964Z,22.01
2023-04-05T12:50:11.921Z,22.02
2023-04-05T12:52:21.361Z,21.93
2023-04-05T12:54:24.732Z,22.01
2023-04-05T12:56:30.575Z,21.76
2023-04-05T12:58:36.515Z,21.79
2023-04-05T13:00:39.292Z,21.50
2023-04-05T13:02:41.992Z,21.61
2023-04-05T13:04:45.735Z,21.79
2023-04-05T13:06:48.620Z,21.80
2023-04-05T13:08:52.784Z,21.67
2023-04-05T13:10:57.903Z,21.79
2023-04-05T13:13:01.389Z,21.64
2023-04-05T13:15:04.547Z,21.70
2023-04-05T13:17:07.277Z,21.76
2023-04-05T13:19:09.938Z,21.68
2023-04-05T13:21:12.643Z,21.65
2023-04-05T13:23:15.241Z,21.68
2023-04-05T13:25:17.907Z,21.73
2023-04-05T13:27:21.869Z,21.74
2023-04-05T13:29:24.569Z,22.03
2023-04-05T13:31:27.658Z,21.90
2023-04-05T13:33:30.398Z,21.97
2023-04-05T13:35:33.313Z,21.98
2023-04-05T13:37:36.290Z,21.85
2023-04-05T13:39:38.988Z,21.99
2023-04-05T13:41:41.631Z,22.03
2023-04-05T13:43:44.285Z,22.24
2023-04-05T13:45:47.052Z,22.41
2023-04-05T13:47:49.938Z,22.34
2023-04-05T13:49:52.623Z,22.08
2023-04-05T13:51:55.313Z,22.15
2023-04-05T13:53:58.322Z,22.17
2023-04-05T13:56:00.958Z,22.09
2023-04-05T13:58:03.554Z,21.89
2023-04-05T14:00:07.174Z,21.73
2023-04-05T14:02:11.850Z,21.64
2023-04-05T14:04:15.747Z,21.62
2023-04-05T14:06:18.447Z,21.56
2023-04-05T14:08:21.113Z,21.09
2023-04-05T14:12:26.648Z,20.72
2023-04-05T14:14:29.686Z,20.42
2023-04-05T14:16:32.590Z,20.23
2023-04-05T14:18:35.297Z,20.23
2023-04-05T14:20:38.055Z,20.23
2023-04-05T14:22:40.858Z,20.15
2023-04-05T14:24:43.548Z,19.89
2023-04-05T14:26:49.600Z,19.57
2023-04-05T14:28:53.118Z,19.67
2023-04-05T14:30:55.937Z,19.61
2023-04-05T14:32:58.905Z,19.49
2023-04-05T14:35:01.683Z,19.43
2023-04-05T14:37:06.200Z,19.35
2023-04-05T14:39:08.806Z,19.33
2023-04-05T14:41:11.799Z,19.19
2023-04-05T14:43:14.401Z,19.01
2023-04-05T14:45:17.743Z,18.96
2023-04-05T14:47:20.485Z,18.90
2023-04-05T14:49:23.270Z,18.79
2023-04-05T14:51:27.019Z,18.77
2023-04-05T14:53:30.070Z,18.71
2023-04-05T14:55:32.843Z,18.68
2023-04-05T14:57:35.527Z,18.66
2023-04-05T14:59:38.228Z,18.63
2023-04-05T15:01:44.502Z,18.54
2023-04-05T15:03:48.550Z,18.44
2023-04-05T15:05:51.555Z,18.31
2023-04-05T15:07:54.213Z,18.24
2023-04-05T15:09:56.828Z,18.17
2023-04-05T15:11:59.808Z,18.01
2023-04-05T15:14:02.460Z,17.87
2023-04-05T15:16:05.877Z,17.73
2023-04-05T15:18:08.654Z,17.63
2023-04-05T15:20:11.660Z,17.53
2023-04-05T15:22:15.688Z,17.45
2023-04-05T15:24:18.372Z,17.41
2023-04-05T15:26:21.801Z,17.35
2023-04-05T15:28:24.534Z,17.30
2023-04-05T15:30:27.326Z,17.27
2023-04-05T15:32:33.997Z,17.19
2023-04-05T15:34:36.760Z,17.21
2023-04-05T15:36:39.766Z,17.17
2023-04-05T15:38:42.406Z,17.20
2023-04-05T15:40:47.922Z,17.14
2023-04-05T15:42:50.547Z,17.09
2023-04-05T15:44:53.556Z,17.03
2023-04-05T15:46:56.425Z,16.98
2023-04-05T15:48:59.584Z,16.90
2023-04-05T15:51:02.648Z,16.85
2023-04-05T15:53:05.850Z,16.77
2023-04-05T15:55:08.864Z,16.67
2023-04-05T15:57:12.110Z,16.59
2023-04-05T15:59:15.006Z,16.56
2023-04-05T16:01:17.831Z,16.49
2023-04-05T16:03:20.630Z,16.40
2023-04-05T16:05:23.717Z,16.38
2023-04-05T16:07:26.766Z,16.30
2023-04-05T16:09:30.225Z,16.19
2023-04-05T16:11:33.215Z,16.15
2023-04-05T16:13:36.243Z,16.10
2023-04-05T16:15:38.984Z,16.00
2023-04-05T16:17:41.678Z,15.89
2023-04-05T16:19:44.368Z,15.76
2023-04-05T16:21:47.050Z,15.67
2023-04-05T16:23:49.768Z,15.64
2023-04-05T16:25:52.486Z,15.59
2023-04-05T16:27:55.318Z,15.53
2023-04-05T16:29:57.899Z,15.49
2023-04-05T16:32:00.866Z,15.42
2023-04-05T16:34:03.854Z,15.35
2023-04-05T16:36:06.656Z,15.28
2023-04-05T16:38:09.352Z,15.23
2023-04-05T16:40:12.757Z,15.17
2023-04-05T16:42:15.661Z,15.12
2023-04-05T16:44:18.256Z,15.08
2023-04-05T16:46:21.045Z,15.04
2023-04-05T16:48:23.799Z,14.99
2023-04-05T16:50:26.541Z,14.93
2023-04-05T16:52:29.259Z,14.93
2023-04-05T16:54:32.367Z,14.88
2023-04-05T16:56:35.218Z,14.84
2023-04-05T16:58:37.939Z,14.80
2023-04-05T17:00:40.623Z,14.72
2023-04-05T17:02:43.414Z,14.74
2023-04-05T17:04:46.654Z,14.72
2023-04-05T17:06:49.624Z,14.70
2023-04-05T17:08:52.344Z,14.66
2023-04-05T17:10:55.062Z,14.64
2023-04-05T17:12:57.946Z,14.61
2023-04-05T17:15:00.953Z,14.55
2023-04-05T17:17:03.682Z,14.50
2023-04-05T17:19:06.494Z,14.47
2023-04-05T17:21:09.575Z,14.44
2023-04-05T17:23:13.025Z,14.40
2023-04-05T17:25:16.368Z,14.37
2023-04-05T17:27:19.540Z,14.34
2023-04-05T17:29:22.185Z,14.30
2023-04-05T17:31:26.718Z,14.26
2023-04-05T17:33:29.668Z,14.21
2023-04-05T17:35:33.149Z,14.17
2023-04-05T17:37:36.178Z,14.13
2023-04-05T17:39:39.538Z,14.07
2023-04-05T17:41:42.513Z,14.06
2023-04-05T17:43:45.328Z,14.03
2023-04-05T17:45:48.071Z,14.02
2023-04-05T17:47:51.040Z,13.99
2023-04-05T17:49:53.988Z,13.98
2023-04-05T17:51:56.763Z,13.94
2023-04-05T17:53:59.927Z,13.92
2023-04-05T17:56:02.898Z,13.87
2023-04-05T17:58:06.016Z,13.85
2023-04-05T18:00:10.830Z,13.81
2023-04-05T18:02:13.651Z,13.78
2023-04-05T18:04:16.556Z,13.75
2023-04-05T18:06:20.194Z,13.72
2023-04-05T18:08:24.239Z,13.70
2023-04-05T18:10:27.111Z,13.60
2023-04-05T18:12:29.864Z,13.62
2023-04-05T18:14:32.688Z,13.56
2023-04-05T18:16:35.763Z,13.53
2023-04-05T18:18:38.518Z,13.49
2023-04-05T18:20:41.117Z,13.43
2023-04-05T18:22:43.865Z,13.39
2023-04-05T18:24:46.595Z,13.34
2023-04-05T18:26:49.242Z,13.31
2023-04-05T18:28:57.932Z,13.32
2023-04-05T18:31:00.889Z,13.27
2023-04-05T18:33:03.615Z,13.23
2023-04-05T18:35:07.681Z,13.20
2023-04-05T18:37:10.496Z,13.20
2023-04-05T18:39:13.113Z,13.18
2023-04-05T18:41:15.781Z,13.16
2023-04-05T18:43:18.708Z,13.15
2023-04-05T18:45:22.879Z,13.13
2023-04-05T18:47:25.610Z,13.12
2023-04-05T18:49:28.487Z,13.10
2023-04-05T18:51:32.005Z,13.09
2023-04-05T18:53:34.752Z,13.05
2023-04-05T18:55:37.580Z,12.99
2023-04-05T18:57:40.460Z,12.96
2023-04-05T18:59:43.235Z,12.91
2023-04-05T19:01:46.175Z,12.85
2023-04-05T19:03:50.510Z,12.81
2023-04-05T19:05:54.006Z,12.76
2023-04-05T19:07:56.731Z,12.74
2023-04-05T19:09:59.541Z,12.69
2023-04-05T19:12:02.191Z,12.65
2023-04-05T19:14:04.884Z,12.61
2023-04-05T19:16:07.868Z,12.58
2023-04-05T19:18:11.397Z,12.57
2023-04-05T19:20:14.095Z,12.53
2023-04-05T19:22:16.730Z,12.45
2023-04-05T19:24:21.139Z,12.47
2023-04-05T19:26:23.893Z,12.42
2023-04-05T19:28:29.877Z,12.37
2023-04-05T19:30:32.603Z,12.32
2023-04-05T19:32:35.500Z,12.30
2023-04-05T19:34:39.159Z,12.26
2023-04-05T19:36:41.817Z,12.25
2023-04-05T19:38:44.523Z,12.24
2023-04-05T19:40:47.112Z,12.22
2023-04-05T19:42:49.925Z,12.21
2023-04-05T19:45:00.702Z,12.21
2023-04-05T19:47:09.947Z,12.22
2023-04-05T19:49:17.084Z,12.18
2023-04-05T19:51:28.793Z,12.19
2023-04-05T19:53:39.761Z,12.14
2023-04-05T19:55:42.501Z,12.15
2023-04-05T19:57:45.019Z,12.18
2023-04-05T19:59:47.694Z,12.15
2023-04-05T20:01:51.061Z,12.13
2023-04-05T20:03:53.805Z,12.08
2023-04-05T20:06:17.055Z,12.02
2023-04-05T20:08:19.895Z,12.01
2023-04-05T20:10:41.004Z,11.99
2023-04-05T20:12:43.701Z,11.91
2023-04-05T20:14:46.864Z,11.88
2023-04-05T20:16:49.970Z,11.83
2023-04-05T20:18:54.354Z,11.78
2023-04-05T20:20:57.136Z,11.73
2023-04-05T20:22:59.825Z,11.64
2023-04-05T20:25:31.979Z,11.57
2023-04-05T20:27:34.450Z,11.48
2023-04-05T20:29:36.982Z,11.37
2023-04-05T20:31:40.260Z,11.31
2023-04-05T20:33:47.429Z,11.27
2023-04-05T20:35:51.591Z,11.18
2023-04-05T20:37:55.666Z,11.12
2023-04-05T20:39:58.673Z,11.06
2023-04-05T20:42:01.865Z,11.00
2023-04-05T20:44:04.680Z,10.93
2023-04-05T20:46:08.292Z,10.90
2023-04-05T20:48:14.151Z,10.85
2023-04-05T20:50:17.793Z,10.83
2023-04-05T20:52:21.036Z,10.81
2023-04-05T20:54:24.400Z,10.78
2023-04-05T20:56:40.742Z,10.74
2023-04-05T20:58:43.471Z,10.70
2023-04-05T21:00:46.067Z,10.63
2023-04-05T21:02:49.089Z,10.63
2023-04-05T21:04:51.860Z,10.66
2023-04-05T21:06:54.506Z,10.65
2023-04-05T21:08:57.265Z,10.63
2023-04-05T21:11:00.217Z,10.60
2023-04-05T21:13:02.862Z,10.56
2023-04-05T21:15:06.097Z,10.51
2023-04-05T21:17:08.818Z,10.51
2023-04-05T21:19:11.430Z,10.48
2023-04-05T21:21:14.226Z,10.45
2023-04-05T21:23:27.870Z,10.40
2023-04-05T21:25:33.658Z,10.39
2023-04-05T21:27:36.437Z,10.35
2023-04-05T21:29:39.123Z,10.32
2023-04-05T21:31:41.930Z,10.32
2023-04-05T21:33:44.599Z,10.29
2023-04-05T21:35:47.321Z,10.28
2023-04-05T21:37:50.727Z,10.26
2023-04-05T21:39:53.306Z,10.22
2023-04-05T21:41:56.264Z,10.21
2023-04-05T21:43:58.935Z,10.20
2023-04-05T21:46:01.632Z,10.20
2023-04-05T21:48:04.590Z,10.20
2023-04-05T21:50:08.440Z,10.18
2023-04-05T21:52:11.221Z,10.14
2023-04-05T21:54:13.883Z,10.13
2023-04-05T21:56:16.819Z,10.10
2023-04-05T21:58:19.601Z,10.11
2023-04-05T22:00:22.570Z,10.09
2023-04-05T22:02:25.469Z,10.04
2023-04-05T22:04:29.275Z,10.04
2023-04-05T22:06:31.974Z,10.02
2023-04-05T22:08:34.626Z,9.97
2023-04-05T22:10:37.481Z,9.97
2023-04-05T22:12:40.249Z,9.92
2023-04-05T22:14:42.918Z,9.90
2023-04-05T22:16:45.653Z,9.88
2023-04-05T22:18:48.262Z,9.85
2023-04-05T22:20:50.912Z,9.84
2023-04-05T22:22:53.752Z,9.82
2023-04-05T22:24:56.438Z,9.78
2023-04-05T22:26:59.222Z,9.71
2023-04-05T22:29:02.720Z,9.67
2023-04-05T22:31:05.463Z,9.64
2023-04-05T22:33:08.619Z,9.58
2023-04-05T22:35:11.380Z,9.53
2023-04-05T22:37:14.086Z,9.50
2023-04-05T22:39:16.796Z,9.49
2023-04-05T22:41:19.549Z,9.43
2023-04-05T22:43:22.364Z,9.49
2023-04-05T22:45:28.829Z,9.47
2023-04-05T22:47:31.652Z,9.46
2023-04-05T22:49:34.415Z,9.44
2023-04-05T22:51:37.112Z,9.41
2023-04-05T22:53:43.431Z,9.44
2023-04-05T22:55:46.237Z,9.45
2023-04-05T22:57:49.933Z,9.44
2023-04-05T22:59:52.599Z,9.40
2023-04-05T23:01:55.370Z,9.35
2023-04-05T23:03:58.049Z,9.31
2023-04-05T23:06:00.808Z,9.26
2023-04-05T23:08:04.130Z,9.24
2023-04-05T23:10:07.412Z,9.24
2023-04-05T23:12:11.331Z,9.23
2023-04-05T23:14:14.083Z,9.19
2023-04-05T23:16:17.187Z,9.21
2023-04-05T23:18:23.192Z,9.21
2023-04-05T23:20:25.787Z,9.15
2023-04-05T23:22:28.500Z,9.12
2023-04-05T23:24:31.366Z,9.13
2023-04-05T23:26:34.537Z,9.10
2023-04-05T23:28:37.256Z,9.07
2023-04-05T23:30:40.019Z,9.03
2023-04-05T23:32:42.866Z,8.97
2023-04-05T23:34:45.740Z,8.94
2023-04-05T23:36:48.402Z,8.93
2023-04-05T23:38:51.310Z,8.89
2023-04-05T23:40:53.925Z,8.87
2023-04-05T23:42:56.721Z,8.83
2023-04-05T23:45:02.136Z,8.82
2023-04-05T23:47:05.842Z,8.80
2023-04-05T23:49:08.799Z,8.73
2023-04-05T23:51:11.899Z,8.67
2023-04-05T23:53:14.590Z,8.65
2023-04-05T23:55:17.270Z,8.62
2023-04-05T23:57:19.890Z,8.61
2023-04-05T23:59:22.630Z,8.58
